Search for airport 
image banner adimage banner adimage banner ad
image banner ad

CN28 - Big Creek Helistop

Located in Big Creek, United States

ICAO - CN28, IATA -

Data provided by Airmate  

General information

Coordinates: N37°12'3" W119°15'11"
Elevation is 4960 feet MSL.
Magnetic variation is 15° East
View others Airports in California

Operational data

Special qualification required
Current time UTC:
Current local time:
Weather at : KMMH - Mammoth Yosemite ( 60 km )
METAR: KMMH 240858Z AUTO 26004KT 10SM CLR 07/M03 A3023 RMK AO2
TAF: KMMH 240520Z 2406/2506 VRB05KT P6SM FEW090 FM241800 04005KT P6SM VCTS SCT060CB BKN090 FM242100 24007KT P6SM SCT100 BKN250
View NOTAMs / SUP AIP / TFR affecting this airport [VIEW]
Communications frequencies: [VIEW]

Runways:

Airport contact information

Address: Big Creek United States

Satellite view of CN28